sensor_id;sensor_type;location;lat;lon;timestamp;P1;durP1;ratioP1;P2;durP2;ratioP2
4244;SDS011;2136;48.502;9.194;2023-03-14T00:00:50;0.60;;;0.60;;
4244;SDS011;2136;48.502;9.194;2023-03-14T00:03:16;0.83;;;0.63;;
4244;SDS011;2136;48.502;9.194;2023-03-14T00:05:43;0.70;;;0.70;;
4244;SDS011;2136;48.502;9.194;2023-03-14T00:08:10;0.70;;;0.70;;
4244;SDS011;2136;48.502;9.194;2023-03-14T00:10:39;0.70;;;0.70;;
4244;SDS011;2136;48.502;9.194;2023-03-14T00:13:06;1.67;;;0.60;;
4244;SDS011;2136;48.502;9.194;2023-03-14T00:15:33;0.70;;;0.67;;
4244;SDS011;2136;48.502;9.194;2023-03-14T00:18:00;0.90;;;0.90;;
4244;SDS011;2136;48.502;9.194;2023-03-14T00:20:27;6.13;;;1.30;;
4244;SDS011;2136;48.502;9.194;2023-03-14T00:22:53;0.67;;;0.67;;
4244;SDS011;2136;48.502;9.194;2023-03-14T00:25:20;0.80;;;0.80;;
4244;SDS011;2136;48.502;9.194;2023-03-14T00:27:49;0.57;;;0.57;;
4244;SDS011;2136;48.502;9.194;2023-03-14T00:30:17;0.67;;;0.67;;
4244;SDS011;2136;48.502;9.194;2023-03-14T00:32:43;0.73;;;0.73;;
4244;SDS011;2136;48.502;9.194;2023-03-14T00:35:10;1.00;;;1.00;;
4244;SDS011;2136;48.502;9.194;2023-03-14T00:37:37;0.77;;;0.77;;
4244;SDS011;2136;48.502;9.194;2023-03-14T00:40:05;0.70;;;0.70;;
4244;SDS011;2136;48.502;9.194;2023-03-14T00:42:33;0.80;;;0.70;;
4244;SDS011;2136;48.502;9.194;2023-03-14T00:45:01;0.60;;;0.60;;
4244;SDS011;2136;48.502;9.194;2023-03-14T00:47:28;0.57;;;0.57;;
4244;SDS011;2136;48.502;9.194;2023-03-14T00:49:55;0.70;;;0.70;;
4244;SDS011;2136;48.502;9.194;2023-03-14T00:52:22;0.70;;;0.70;;
4244;SDS011;2136;48.502;9.194;2023-03-14T00:54:49;0.60;;;0.60;;
4244;SDS011;2136;48.502;9.194;2023-03-14T00:57:16;1.57;;;0.77;;
4244;SDS011;2136;48.502;9.194;2023-03-14T00:59:43;0.77;;;0.50;;
4244;SDS011;2136;48.502;9.194;2023-03-14T01:02:11;0.50;;;0.50;;
4244;SDS011;2136;48.502;9.194;2023-03-14T01:04:38;0.50;;;0.50;;
4244;SDS011;2136;48.502;9.194;2023-03-14T01:07:04;0.50;;;0.50;;
4244;SDS011;2136;48.502;9.194;2023-03-14T01:09:31;0.70;;;0.70;;
4244;SDS011;2136;48.502;9.194;2023-03-14T01:11:58;0.60;;;0.60;;
4244;SDS011;2136;48.502;9.194;2023-03-14T01:14:25;0.50;;;0.50;;
4244;SDS011;2136;48.502;9.194;2023-03-14T01:16:52;0.70;;;0.70;;
4244;SDS011;2136;48.502;9.194;2023-03-14T01:19:20;0.60;;;0.60;;
4244;SDS011;2136;48.502;9.194;2023-03-14T01:21:47;0.50;;;0.50;;
4244;SDS011;2136;48.502;9.194;2023-03-14T01:24:13;0.60;;;0.60;;
4244;SDS011;2136;48.502;9.194;2023-03-14T01:26:40;0.60;;;0.60;;
4244;SDS011;2136;48.502;9.194;2023-03-14T01:29:07;0.60;;;0.60;;
4244;SDS011;2136;48.502;9.194;2023-03-14T01:31:34;0.60;;;0.60;;
4244;SDS011;2136;48.502;9.194;2023-03-14T01:34:01;2.20;;;0.70;;
4244;SDS011;2136;48.502;9.194;2023-03-14T01:36:29;1.33;;;0.60;;
4244;SDS011;2136;48.502;9.194;2023-03-14T01:38:56;0.70;;;0.70;;
4244;SDS011;2136;48.502;9.194;2023-03-14T01:41:24;1.00;;;0.60;;
4244;SDS011;2136;48.502;9.194;2023-03-14T01:43:51;0.50;;;0.50;;
4244;SDS011;2136;48.502;9.194;2023-03-14T01:46:26;0.60;;;0.60;;
4244;SDS011;2136;48.502;9.194;2023-03-14T01:49:06;0.70;;;0.70;;
4244;SDS011;2136;48.502;9.194;2023-03-14T01:51:51;0.60;;;0.60;;
4244;SDS011;2136;48.502;9.194;2023-03-14T01:54:23;1.43;;;0.60;;
4244;SDS011;2136;48.502;9.194;2023-03-14T01:56:55;1.60;;;1.50;;
4244;SDS011;2136;48.502;9.194;2023-03-14T01:59:23;0.60;;;0.60;;
4244;SDS011;2136;48.502;9.194;2023-03-14T02:01:51;1.23;;;0.70;;
4244;SDS011;2136;48.502;9.194;2023-03-14T02:04:20;1.90;;;0.60;;
4244;SDS011;2136;48.502;9.194;2023-03-14T02:06:50;0.60;;;0.60;;
4244;SDS011;2136;48.502;9.194;2023-03-14T02:09:22;0.80;;;0.80;;
4244;SDS011;2136;48.502;9.194;2023-03-14T02:11:49;0.50;;;0.50;;
4244;SDS011;2136;48.502;9.194;2023-03-14T02:14:20;1.87;;;0.60;;
4244;SDS011;2136;48.502;9.194;2023-03-14T02:16:53;0.80;;;0.63;;
4244;SDS011;2136;48.502;9.194;2023-03-14T02:19:21;0.70;;;0.70;;
4244;SDS011;2136;48.502;9.194;2023-03-14T02:22:00;0.60;;;0.60;;
4244;SDS011;2136;48.502;9.194;2023-03-14T02:24:33;1.33;;;0.60;;
4244;SDS011;2136;48.502;9.194;2023-03-14T02:27:16;0.50;;;0.50;;
4244;SDS011;2136;48.502;9.194;2023-03-14T02:29:45;0.60;;;0.60;;
4244;SDS011;2136;48.502;9.194;2023-03-14T02:32:17;0.50;;;0.50;;
4244;SDS011;2136;48.502;9.194;2023-03-14T02:34:45;0.50;;;0.50;;
4244;SDS011;2136;48.502;9.194;2023-03-14T02:37:15;0.67;;;0.67;;
4244;SDS011;2136;48.502;9.194;2023-03-14T02:39:45;1.07;;;1.07;;
4244;SDS011;2136;48.502;9.194;2023-03-14T02:42:15;0.70;;;0.70;;
4244;SDS011;2136;48.502;9.194;2023-03-14T02:44:47;0.60;;;0.60;;
4244;SDS011;2136;48.502;9.194;2023-03-14T02:47:19;0.60;;;0.60;;
4244;SDS011;2136;48.502;9.194;2023-03-14T02:49:48;3.40;;;0.60;;
4244;SDS011;2136;48.502;9.194;2023-03-14T02:52:15;0.60;;;0.60;;
4244;SDS011;2136;48.502;9.194;2023-03-14T02:54:42;1.13;;;0.70;;
4244;SDS011;2136;48.502;9.194;2023-03-14T02:57:09;0.53;;;0.53;;
4244;SDS011;2136;48.502;9.194;2023-03-14T02:59:37;0.60;;;0.57;;
4244;SDS011;2136;48.502;9.194;2023-03-14T03:02:04;0.50;;;0.50;;
4244;SDS011;2136;48.502;9.194;2023-03-14T03:04:31;0.70;;;0.60;;
4244;SDS011;2136;48.502;9.194;2023-03-14T03:06:57;0.70;;;0.60;;
4244;SDS011;2136;48.502;9.194;2023-03-14T03:09:24;0.60;;;0.60;;
4244;SDS011;2136;48.502;9.194;2023-03-14T03:11:51;0.70;;;0.70;;
4244;SDS011;2136;48.502;9.194;2023-03-14T03:14:18;4.73;;;0.73;;
4244;SDS011;2136;48.502;9.194;2023-03-14T03:16:46;1.13;;;0.80;;
4244;SDS011;2136;48.502;9.194;2023-03-14T03:19:13;0.50;;;0.50;;
4244;SDS011;2136;48.502;9.194;2023-03-14T03:21:41;2.43;;;0.70;;
4244;SDS011;2136;48.502;9.194;2023-03-14T03:24:07;0.83;;;0.67;;
4244;SDS011;2136;48.502;9.194;2023-03-14T03:26:34;2.10;;;0.70;;
4244;SDS011;2136;48.502;9.194;2023-03-14T03:29:01;0.70;;;0.70;;
4244;SDS011;2136;48.502;9.194;2023-03-14T03:31:28;5.93;;;1.90;;
4244;SDS011;2136;48.502;9.194;2023-03-14T03:33:57;0.83;;;0.83;;
4244;SDS011;2136;48.502;9.194;2023-03-14T03:36:25;0.60;;;0.60;;
4244;SDS011;2136;48.502;9.194;2023-03-14T03:38:52;1.77;;;0.70;;
4244;SDS011;2136;48.502;9.194;2023-03-14T03:41:19;0.87;;;0.87;;
4244;SDS011;2136;48.502;9.194;2023-03-14T03:43:46;0.60;;;0.60;;
4244;SDS011;2136;48.502;9.194;2023-03-14T03:46:13;0.70;;;0.60;;
4244;SDS011;2136;48.502;9.194;2023-03-14T03:48:39;0.73;;;0.73;;
4244;SDS011;2136;48.502;9.194;2023-03-14T03:51:08;0.63;;;0.63;;
4244;SDS011;2136;48.502;9.194;2023-03-14T03:53:38;0.60;;;0.60;;
4244;SDS011;2136;48.502;9.194;2023-03-14T03:56:05;0.90;;;0.80;;
4244;SDS011;2136;48.502;9.194;2023-03-14T03:58:33;4.50;;;0.80;;
4244;SDS011;2136;48.502;9.194;2023-03-14T04:01:00;0.70;;;0.70;;
4244;SDS011;2136;48.502;9.194;2023-03-14T04:03:27;2.33;;;1.00;;
4244;SDS011;2136;48.502;9.194;2023-03-14T04:05:57;2.00;;;1.00;;
4244;SDS011;2136;48.502;9.194;2023-03-14T04:08:26;1.17;;;0.80;;
4244;SDS011;2136;48.502;9.194;2023-03-14T04:10:54;2.30;;;1.10;;
4244;SDS011;2136;48.502;9.194;2023-03-14T04:13:22;1.27;;;1.10;;
4244;SDS011;2136;48.502;9.194;2023-03-14T04:15:49;3.20;;;0.90;;
4244;SDS011;2136;48.502;9.194;2023-03-14T04:18:17;2.47;;;1.63;;
4244;SDS011;2136;48.502;9.194;2023-03-14T04:20:44;1.63;;;0.63;;
4244;SDS011;2136;48.502;9.194;2023-03-14T04:23:11;0.70;;;0.70;;
4244;SDS011;2136;48.502;9.194;2023-03-14T04:25:39;0.63;;;0.60;;
4244;SDS011;2136;48.502;9.194;2023-03-14T04:28:06;1.33;;;0.60;;
4244;SDS011;2136;48.502;9.194;2023-03-14T04:30:33;1.63;;;1.10;;
4244;SDS011;2136;48.502;9.194;2023-03-14T04:33:00;0.70;;;0.70;;
4244;SDS011;2136;48.502;9.194;2023-03-14T04:35:27;1.93;;;0.80;;
4244;SDS011;2136;48.502;9.194;2023-03-14T04:37:53;2.10;;;0.70;;
4244;SDS011;2136;48.502;9.194;2023-03-14T04:40:20;0.70;;;0.70;;
4244;SDS011;2136;48.502;9.194;2023-03-14T04:42:48;1.70;;;0.90;;
4244;SDS011;2136;48.502;9.194;2023-03-14T04:45:15;1.70;;;0.90;;
4244;SDS011;2136;48.502;9.194;2023-03-14T04:47:42;0.70;;;0.70;;
4244;SDS011;2136;48.502;9.194;2023-03-14T04:50:09;1.17;;;1.00;;
4244;SDS011;2136;48.502;9.194;2023-03-14T04:52:36;2.63;;;0.80;;
4244;SDS011;2136;48.502;9.194;2023-03-14T04:55:03;1.80;;;1.67;;
4244;SDS011;2136;48.502;9.194;2023-03-14T04:57:31;2.77;;;1.00;;
4244;SDS011;2136;48.502;9.194;2023-03-14T04:59:59;7.30;;;0.90;;
4244;SDS011;2136;48.502;9.194;2023-03-14T05:02:31;1.83;;;0.97;;
4244;SDS011;2136;48.502;9.194;2023-03-14T05:04:57;4.43;;;0.80;;
4244;SDS011;2136;48.502;9.194;2023-03-14T05:07:24;3.67;;;1.03;;
4244;SDS011;2136;48.502;9.194;2023-03-14T05:09:51;1.90;;;0.80;;
4244;SDS011;2136;48.502;9.194;2023-03-14T05:12:18;0.70;;;0.70;;
4244;SDS011;2136;48.502;9.194;2023-03-14T05:14:45;1.83;;;0.87;;
4244;SDS011;2136;48.502;9.194;2023-03-14T05:17:14;1.90;;;0.83;;
4244;SDS011;2136;48.502;9.194;2023-03-14T05:19:41;4.33;;;0.80;;
4244;SDS011;2136;48.502;9.194;2023-03-14T05:22:08;0.80;;;0.77;;
4244;SDS011;2136;48.502;9.194;2023-03-14T05:24:35;5.77;;;1.00;;
4244;SDS011;2136;48.502;9.194;2023-03-14T05:27:03;1.27;;;0.70;;
4244;SDS011;2136;48.502;9.194;2023-03-14T05:29:31;1.73;;;0.73;;
4244;SDS011;2136;48.502;9.194;2023-03-14T05:31:57;0.70;;;0.70;;
4244;SDS011;2136;48.502;9.194;2023-03-14T05:34:26;2.87;;;0.83;;
4244;SDS011;2136;48.502;9.194;2023-03-14T05:36:52;2.57;;;0.87;;
4244;SDS011;2136;48.502;9.194;2023-03-14T05:39:21;2.95;;;0.90;;
4244;SDS011;2136;48.502;9.194;2023-03-14T05:41:48;1.10;;;0.80;;
4244;SDS011;2136;48.502;9.194;2023-03-14T05:44:15;2.57;;;0.90;;
4244;SDS011;2136;48.502;9.194;2023-03-14T05:46:42;4.25;;;0.85;;
4244;SDS011;2136;48.502;9.194;2023-03-14T05:49:09;2.30;;;0.80;;
4244;SDS011;2136;48.502;9.194;2023-03-14T05:51:37;0.80;;;0.80;;
4244;SDS011;2136;48.502;9.194;2023-03-14T05:54:04;2.73;;;0.70;;
4244;SDS011;2136;48.502;9.194;2023-03-14T05:56:31;12.60;;;1.17;;
4244;SDS011;2136;48.502;9.194;2023-03-14T05:58:57;2.27;;;1.00;;
4244;SDS011;2136;48.502;9.194;2023-03-14T06:01:26;0.80;;;0.80;;
4244;SDS011;2136;48.502;9.194;2023-03-14T06:03:53;5.00;;;1.10;;
4244;SDS011;2136;48.502;9.194;2023-03-14T06:06:20;2.87;;;1.30;;
4244;SDS011;2136;48.502;9.194;2023-03-14T06:08:48;0.70;;;0.70;;
4244;SDS011;2136;48.502;9.194;2023-03-14T06:11:15;1.33;;;0.70;;
4244;SDS011;2136;48.502;9.194;2023-03-14T06:13:42;0.80;;;0.80;;
4244;SDS011;2136;48.502;9.194;2023-03-14T06:16:09;1.07;;;0.70;;
4244;SDS011;2136;48.502;9.194;2023-03-14T06:18:36;1.73;;;0.90;;
4244;SDS011;2136;48.502;9.194;2023-03-14T06:21:03;0.83;;;0.60;;
4244;SDS011;2136;48.502;9.194;2023-03-14T06:23:30;0.67;;;0.67;;
4244;SDS011;2136;48.502;9.194;2023-03-14T06:25:58;1.07;;;0.70;;
4244;SDS011;2136;48.502;9.194;2023-03-14T06:28:26;0.70;;;0.70;;
4244;SDS011;2136;48.502;9.194;2023-03-14T06:30:53;0.73;;;0.70;;
4244;SDS011;2136;48.502;9.194;2023-03-14T06:33:19;0.60;;;0.60;;
4244;SDS011;2136;48.502;9.194;2023-03-14T06:35:46;2.20;;;0.70;;
4244;SDS011;2136;48.502;9.194;2023-03-14T06:38:13;0.70;;;0.70;;
4244;SDS011;2136;48.502;9.194;2023-03-14T06:40:40;1.00;;;0.80;;
4244;SDS011;2136;48.502;9.194;2023-03-14T06:43:08;1.30;;;0.80;;
4244;SDS011;2136;48.502;9.194;2023-03-14T06:45:35;2.77;;;1.07;;
4244;SDS011;2136;48.502;9.194;2023-03-14T06:48:02;1.70;;;0.90;;
4244;SDS011;2136;48.502;9.194;2023-03-14T06:50:29;2.30;;;1.00;;
4244;SDS011;2136;48.502;9.194;2023-03-14T06:52:56;2.60;;;0.87;;
4244;SDS011;2136;48.502;9.194;2023-03-14T06:55:23;0.70;;;0.70;;
4244;SDS011;2136;48.502;9.194;2023-03-14T06:57:51;5.73;;;0.97;;
4244;SDS011;2136;48.502;9.194;2023-03-14T07:00:19;1.70;;;0.90;;
4244;SDS011;2136;48.502;9.194;2023-03-14T07:02:46;0.90;;;0.70;;
4244;SDS011;2136;48.502;9.194;2023-03-14T07:05:13;1.60;;;1.10;;
4244;SDS011;2136;48.502;9.194;2023-03-14T07:07:40;0.73;;;0.67;;
4244;SDS011;2136;48.502;9.194;2023-03-14T07:10:07;2.50;;;0.70;;
4244;SDS011;2136;48.502;9.194;2023-03-14T07:12:34;1.13;;;0.77;;
4244;SDS011;2136;48.502;9.194;2023-03-14T07:15:01;1.10;;;0.93;;
4244;SDS011;2136;48.502;9.194;2023-03-14T07:17:30;0.60;;;0.60;;
4244;SDS011;2136;48.502;9.194;2023-03-14T07:19:56;1.47;;;0.80;;
4244;SDS011;2136;48.502;9.194;2023-03-14T07:22:24;2.23;;;0.87;;
4244;SDS011;2136;48.502;9.194;2023-03-14T07:24:51;1.83;;;1.00;;
4244;SDS011;2136;48.502;9.194;2023-03-14T07:27:18;1.33;;;0.80;;
4244;SDS011;2136;48.502;9.194;2023-03-14T07:29:44;0.63;;;0.63;;
4244;SDS011;2136;48.502;9.194;2023-03-14T07:32:11;0.90;;;0.80;;
4244;SDS011;2136;48.502;9.194;2023-03-14T07:34:41;0.63;;;0.63;;
4244;SDS011;2136;48.502;9.194;2023-03-14T07:37:08;0.57;;;0.57;;
4244;SDS011;2136;48.502;9.194;2023-03-14T07:39:35;0.80;;;0.80;;
4244;SDS011;2136;48.502;9.194;2023-03-14T07:42:01;5.27;;;0.90;;
4244;SDS011;2136;48.502;9.194;2023-03-14T07:44:28;2.27;;;0.93;;
4244;SDS011;2136;48.502;9.194;2023-03-14T07:46:55;0.80;;;0.60;;
4244;SDS011;2136;48.502;9.194;2023-03-14T07:49:22;3.40;;;0.67;;
4244;SDS011;2136;48.502;9.194;2023-03-14T07:51:50;1.23;;;0.80;;
4244;SDS011;2136;48.502;9.194;2023-03-14T07:54:17;0.97;;;0.70;;
4244;SDS011;2136;48.502;9.194;2023-03-14T07:56:44;2.90;;;0.90;;
4244;SDS011;2136;48.502;9.194;2023-03-14T07:59:11;0.70;;;0.60;;
4244;SDS011;2136;48.502;9.194;2023-03-14T08:01:37;2.20;;;0.70;;
4244;SDS011;2136;48.502;9.194;2023-03-14T08:04:04;0.60;;;0.60;;
4244;SDS011;2136;48.502;9.194;2023-03-14T08:06:31;0.70;;;0.70;;
4244;SDS011;2136;48.502;9.194;2023-03-14T08:08:59;1.03;;;0.80;;
4244;SDS011;2136;48.502;9.194;2023-03-14T08:11:26;0.60;;;0.60;;
4244;SDS011;2136;48.502;9.194;2023-03-14T08:13:53;0.60;;;0.60;;
4244;SDS011;2136;48.502;9.194;2023-03-14T08:16:20;1.90;;;0.70;;
4244;SDS011;2136;48.502;9.194;2023-03-14T08:18:48;1.23;;;0.73;;
4244;SDS011;2136;48.502;9.194;2023-03-14T08:21:14;0.70;;;0.60;;
4244;SDS011;2136;48.502;9.194;2023-03-14T08:23:41;1.70;;;1.13;;
4244;SDS011;2136;48.502;9.194;2023-03-14T08:26:09;0.80;;;0.80;;
4244;SDS011;2136;48.502;9.194;2023-03-14T08:28:36;1.77;;;0.80;;
4244;SDS011;2136;48.502;9.194;2023-03-14T08:31:03;0.70;;;0.70;;
4244;SDS011;2136;48.502;9.194;2023-03-14T08:33:30;0.70;;;0.70;;
4244;SDS011;2136;48.502;9.194;2023-03-14T08:35:58;0.80;;;0.80;;
4244;SDS011;2136;48.502;9.194;2023-03-14T08:38:26;0.70;;;0.60;;
4244;SDS011;2136;48.502;9.194;2023-03-14T08:40:56;3.20;;;1.03;;
4244;SDS011;2136;48.502;9.194;2023-03-14T08:43:25;0.70;;;0.70;;
4244;SDS011;2136;48.502;9.194;2023-03-14T08:45:52;3.53;;;0.67;;
4244;SDS011;2136;48.502;9.194;2023-03-14T08:48:19;2.30;;;0.90;;
4244;SDS011;2136;48.502;9.194;2023-03-14T08:50:46;0.73;;;0.70;;
4244;SDS011;2136;48.502;9.194;2023-03-14T08:53:13;0.70;;;0.70;;
4244;SDS011;2136;48.502;9.194;2023-03-14T08:55:40;1.37;;;0.87;;
4244;SDS011;2136;48.502;9.194;2023-03-14T08:58:06;1.70;;;0.70;;
4244;SDS011;2136;48.502;9.194;2023-03-14T09:00:35;1.10;;;0.63;;
4244;SDS011;2136;48.502;9.194;2023-03-14T09:03:02;1.03;;;0.70;;
4244;SDS011;2136;48.502;9.194;2023-03-14T09:05:29;1.00;;;0.70;;
4244;SDS011;2136;48.502;9.194;2023-03-14T09:07:59;1.00;;;0.73;;
4244;SDS011;2136;48.502;9.194;2023-03-14T09:10:25;0.63;;;0.63;;
4244;SDS011;2136;48.502;9.194;2023-03-14T09:12:52;13.53;;;1.30;;
4244;SDS011;2136;48.502;9.194;2023-03-14T09:15:19;0.87;;;0.87;;
4244;SDS011;2136;48.502;9.194;2023-03-14T09:17:47;0.90;;;0.80;;
4244;SDS011;2136;48.502;9.194;2023-03-14T09:20:14;0.60;;;0.60;;
4244;SDS011;2136;48.502;9.194;2023-03-14T09:22:41;2.00;;;0.63;;
4244;SDS011;2136;48.502;9.194;2023-03-14T09:25:08;0.90;;;0.60;;
4244;SDS011;2136;48.502;9.194;2023-03-14T09:27:35;0.53;;;0.50;;
4244;SDS011;2136;48.502;9.194;2023-03-14T09:30:02;0.70;;;0.70;;
4244;SDS011;2136;48.502;9.194;2023-03-14T09:32:30;1.00;;;0.73;;
4244;SDS011;2136;48.502;9.194;2023-03-14T09:34:58;1.10;;;0.70;;
4244;SDS011;2136;48.502;9.194;2023-03-14T09:37:25;0.60;;;0.60;;
4244;SDS011;2136;48.502;9.194;2023-03-14T09:39:52;0.60;;;0.60;;
4244;SDS011;2136;48.502;9.194;2023-03-14T09:42:20;0.50;;;0.50;;
4244;SDS011;2136;48.502;9.194;2023-03-14T09:44:52;0.50;;;0.50;;
4244;SDS011;2136;48.502;9.194;2023-03-14T09:47:20;0.70;;;0.70;;
4244;SDS011;2136;48.502;9.194;2023-03-14T09:49:48;1.43;;;0.60;;
4244;SDS011;2136;48.502;9.194;2023-03-14T09:52:17;2.33;;;0.60;;
4244;SDS011;2136;48.502;9.194;2023-03-14T09:54:49;1.90;;;0.70;;
4244;SDS011;2136;48.502;9.194;2023-03-14T09:57:18;0.57;;;0.50;;
4244;SDS011;2136;48.502;9.194;2023-03-14T09:59:47;0.60;;;0.60;;
4244;SDS011;2136;48.502;9.194;2023-03-14T10:02:17;0.70;;;0.60;;
4244;SDS011;2136;48.502;9.194;2023-03-14T10:04:45;1.43;;;0.60;;
4244;SDS011;2136;48.502;9.194;2023-03-14T10:07:14;0.70;;;0.70;;
4244;SDS011;2136;48.502;9.194;2023-03-14T10:09:44;0.60;;;0.60;;
4244;SDS011;2136;48.502;9.194;2023-03-14T10:12:13;2.30;;;1.00;;
4244;SDS011;2136;48.502;9.194;2023-03-14T10:14:44;1.10;;;0.80;;
4244;SDS011;2136;48.502;9.194;2023-03-14T10:17:14;1.43;;;1.13;;
4244;SDS011;2136;48.502;9.194;2023-03-14T10:19:51;0.70;;;0.60;;
4244;SDS011;2136;48.502;9.194;2023-03-14T10:22:22;0.70;;;0.70;;
4244;SDS011;2136;48.502;9.194;2023-03-14T10:24:52;0.60;;;0.60;;
4244;SDS011;2136;48.502;9.194;2023-03-14T10:27:21;0.60;;;0.60;;
4244;SDS011;2136;48.502;9.194;2023-03-14T10:29:53;0.50;;;0.50;;
4244;SDS011;2136;48.502;9.194;2023-03-14T10:32:21;0.70;;;0.70;;
4244;SDS011;2136;48.502;9.194;2023-03-14T10:37:49;4.60;;;0.70;;
4244;SDS011;2136;48.502;9.194;2023-03-14T10:40:18;0.67;;;0.67;;
4244;SDS011;2136;48.502;9.194;2023-03-14T10:42:46;0.60;;;0.60;;
4244;SDS011;2136;48.502;9.194;2023-03-14T10:45:25;0.80;;;0.70;;
4244;SDS011;2136;48.502;9.194;2023-03-14T10:47:58;0.83;;;0.60;;
4244;SDS011;2136;48.502;9.194;2023-03-14T10:50:31;0.70;;;0.70;;
4244;SDS011;2136;48.502;9.194;2023-03-14T10:53:02;0.57;;;0.57;;
4244;SDS011;2136;48.502;9.194;2023-03-14T10:55:39;0.60;;;0.60;;
4244;SDS011;2136;48.502;9.194;2023-03-14T10:58:21;0.50;;;0.50;;
4244;SDS011;2136;48.502;9.194;2023-03-14T11:00:51;0.67;;;0.67;;
4244;SDS011;2136;48.502;9.194;2023-03-14T11:03:26;0.70;;;0.70;;
4244;SDS011;2136;48.502;9.194;2023-03-14T11:05:57;0.50;;;0.50;;
4244;SDS011;2136;48.502;9.194;2023-03-14T11:08:33;1.33;;;0.67;;
4244;SDS011;2136;48.502;9.194;2023-03-14T11:11:10;0.50;;;0.50;;
4244;SDS011;2136;48.502;9.194;2023-03-14T11:13:43;1.27;;;0.70;;
4244;SDS011;2136;48.502;9.194;2023-03-14T11:16:19;0.93;;;0.60;;
4244;SDS011;2136;48.502;9.194;2023-03-14T11:21:46;0.70;;;0.70;;
4244;SDS011;2136;48.502;9.194;2023-03-14T11:24:27;0.80;;;0.80;;
4244;SDS011;2136;48.502;9.194;2023-03-14T11:27:03;9.63;;;6.47;;
4244;SDS011;2136;48.502;9.194;2023-03-14T11:29:37;3.57;;;3.10;;
4244;SDS011;2136;48.502;9.194;2023-03-14T11:32:13;2.40;;;2.30;;
4244;SDS011;2136;48.502;9.194;2023-03-14T11:34:47;1.87;;;1.77;;
4244;SDS011;2136;48.502;9.194;2023-03-14T11:37:19;2.00;;;1.67;;
4244;SDS011;2136;48.502;9.194;2023-03-14T11:39:54;2.77;;;2.57;;
4244;SDS011;2136;48.502;9.194;2023-03-14T11:42:26;2.20;;;2.10;;
4244;SDS011;2136;48.502;9.194;2023-03-14T11:44:55;1.43;;;1.30;;
4244;SDS011;2136;48.502;9.194;2023-03-14T11:47:24;6.50;;;5.27;;
4244;SDS011;2136;48.502;9.194;2023-03-14T11:49:56;1.70;;;1.43;;
4244;SDS011;2136;48.502;9.194;2023-03-14T11:52:29;1.50;;;1.40;;
4244;SDS011;2136;48.502;9.194;2023-03-14T11:55:01;2.87;;;2.67;;
4244;SDS011;2136;48.502;9.194;2023-03-14T11:57:32;3.33;;;3.13;;
4244;SDS011;2136;48.502;9.194;2023-03-14T12:00:00;5.90;;;2.33;;
4244;SDS011;2136;48.502;9.194;2023-03-14T12:02:40;0.90;;;0.90;;
4244;SDS011;2136;48.502;9.194;2023-03-14T12:08:20;1.67;;;1.57;;
4244;SDS011;2136;48.502;9.194;2023-03-14T12:11:08;0.80;;;0.80;;
4244;SDS011;2136;48.502;9.194;2023-03-14T12:13:39;0.73;;;0.57;;
4244;SDS011;2136;48.502;9.194;2023-03-14T12:16:19;1.37;;;0.90;;
4244;SDS011;2136;48.502;9.194;2023-03-14T12:18:57;0.60;;;0.60;;
4244;SDS011;2136;48.502;9.194;2023-03-14T12:22:01;1.70;;;1.20;;
4244;SDS011;2136;48.502;9.194;2023-03-14T12:24:35;1.60;;;0.80;;
4244;SDS011;2136;48.502;9.194;2023-03-14T12:27:05;0.70;;;0.70;;
4244;SDS011;2136;48.502;9.194;2023-03-14T12:32:25;0.87;;;0.70;;
4244;SDS011;2136;48.502;9.194;2023-03-14T12:34:52;0.60;;;0.60;;
4244;SDS011;2136;48.502;9.194;2023-03-14T12:37:24;0.57;;;0.57;;
4244;SDS011;2136;48.502;9.194;2023-03-14T12:40:01;0.60;;;0.60;;
4244;SDS011;2136;48.502;9.194;2023-03-14T12:42:43;0.60;;;0.60;;
4244;SDS011;2136;48.502;9.194;2023-03-14T12:45:22;0.83;;;0.70;;
4244;SDS011;2136;48.502;9.194;2023-03-14T12:47:52;2.43;;;0.60;;
4244;SDS011;2136;48.502;9.194;2023-03-14T12:50:30;0.70;;;0.70;;
4244;SDS011;2136;48.502;9.194;2023-03-14T12:53:08;2.30;;;0.83;;
4244;SDS011;2136;48.502;9.194;2023-03-14T12:56:11;4.50;;;1.63;;
4244;SDS011;2136;48.502;9.194;2023-03-14T12:58:57;0.97;;;0.97;;
4244;SDS011;2136;48.502;9.194;2023-03-14T13:01:35;1.03;;;0.90;;
4244;SDS011;2136;48.502;9.194;2023-03-14T13:04:02;1.73;;;0.70;;
4244;SDS011;2136;48.502;9.194;2023-03-14T13:06:44;2.00;;;0.60;;
4244;SDS011;2136;48.502;9.194;2023-03-14T13:09:35;0.70;;;0.70;;
4244;SDS011;2136;48.502;9.194;2023-03-14T13:12:17;0.70;;;0.70;;
4244;SDS011;2136;48.502;9.194;2023-03-14T13:14:47;1.33;;;1.00;;
4244;SDS011;2136;48.502;9.194;2023-03-14T13:17:19;0.93;;;0.90;;
4244;SDS011;2136;48.502;9.194;2023-03-14T13:19:50;0.70;;;0.70;;
4244;SDS011;2136;48.502;9.194;2023-03-14T13:22:20;0.70;;;0.70;;
4244;SDS011;2136;48.502;9.194;2023-03-14T13:24:49;0.67;;;0.67;;
4244;SDS011;2136;48.502;9.194;2023-03-14T13:27:17;1.57;;;0.70;;
4244;SDS011;2136;48.502;9.194;2023-03-14T13:29:47;2.40;;;0.70;;
4244;SDS011;2136;48.502;9.194;2023-03-14T13:32:16;1.70;;;0.90;;
4244;SDS011;2136;48.502;9.194;2023-03-14T13:34:46;1.73;;;0.80;;
4244;SDS011;2136;48.502;9.194;2023-03-14T13:37:16;5.00;;;0.80;;
4244;SDS011;2136;48.502;9.194;2023-03-14T13:39:48;4.77;;;0.93;;
4244;SDS011;2136;48.502;9.194;2023-03-14T13:42:16;0.90;;;0.80;;
4244;SDS011;2136;48.502;9.194;2023-03-14T13:44:44;2.47;;;0.80;;
4244;SDS011;2136;48.502;9.194;2023-03-14T13:47:13;4.20;;;0.87;;
4244;SDS011;2136;48.502;9.194;2023-03-14T13:49:42;1.93;;;0.97;;
4244;SDS011;2136;48.502;9.194;2023-03-14T13:52:28;1.00;;;0.90;;
4244;SDS011;2136;48.502;9.194;2023-03-14T13:54:57;3.13;;;0.80;;
4244;SDS011;2136;48.502;9.194;2023-03-14T13:57:25;3.37;;;1.03;;
4244;SDS011;2136;48.502;9.194;2023-03-14T14:00:00;1.50;;;0.77;;
4244;SDS011;2136;48.502;9.194;2023-03-14T14:02:32;3.20;;;0.90;;
4244;SDS011;2136;48.502;9.194;2023-03-14T14:05:02;3.13;;;1.20;;
4244;SDS011;2136;48.502;9.194;2023-03-14T14:07:30;1.10;;;0.80;;
4244;SDS011;2136;48.502;9.194;2023-03-14T14:09:57;1.27;;;0.93;;
4244;SDS011;2136;48.502;9.194;2023-03-14T14:12:26;0.83;;;0.83;;
4244;SDS011;2136;48.502;9.194;2023-03-14T14:14:57;1.07;;;0.70;;
4244;SDS011;2136;48.502;9.194;2023-03-14T14:17:29;1.73;;;0.90;;
4244;SDS011;2136;48.502;9.194;2023-03-14T14:19:59;1.50;;;1.00;;
4244;SDS011;2136;48.502;9.194;2023-03-14T14:22:28;2.80;;;1.10;;
4244;SDS011;2136;48.502;9.194;2023-03-14T14:24:56;11.43;;;1.10;;
4244;SDS011;2136;48.502;9.194;2023-03-14T14:27:24;0.97;;;0.97;;
4244;SDS011;2136;48.502;9.194;2023-03-14T14:29:57;2.67;;;1.50;;
4244;SDS011;2136;48.502;9.194;2023-03-14T14:32:27;1.27;;;1.00;;
4244;SDS011;2136;48.502;9.194;2023-03-14T14:35:02;2.67;;;1.70;;
4244;SDS011;2136;48.502;9.194;2023-03-14T14:37:30;0.90;;;0.90;;
4244;SDS011;2136;48.502;9.194;2023-03-14T14:39:59;1.93;;;1.07;;
4244;SDS011;2136;48.502;9.194;2023-03-14T14:42:32;0.70;;;0.70;;
4244;SDS011;2136;48.502;9.194;2023-03-14T14:45:02;2.10;;;1.23;;
4244;SDS011;2136;48.502;9.194;2023-03-14T14:47:29;2.40;;;1.10;;
4244;SDS011;2136;48.502;9.194;2023-03-14T14:49:58;7.10;;;0.97;;
4244;SDS011;2136;48.502;9.194;2023-03-14T14:52:31;3.13;;;1.00;;
4244;SDS011;2136;48.502;9.194;2023-03-14T14:55:03;4.30;;;2.43;;
4244;SDS011;2136;48.502;9.194;2023-03-14T14:57:38;6.40;;;1.10;;
4244;SDS011;2136;48.502;9.194;2023-03-14T15:00:08;2.20;;;1.23;;
4244;SDS011;2136;48.502;9.194;2023-03-14T15:02:45;1.07;;;0.90;;
4244;SDS011;2136;48.502;9.194;2023-03-14T15:05:13;1.73;;;1.00;;
4244;SDS011;2136;48.502;9.194;2023-03-14T15:07:40;3.33;;;1.83;;
4244;SDS011;2136;48.502;9.194;2023-03-14T15:10:09;6.33;;;1.00;;
4244;SDS011;2136;48.502;9.194;2023-03-14T15:12:37;1.63;;;1.20;;
4244;SDS011;2136;48.502;9.194;2023-03-14T15:15:04;1.30;;;0.80;;
4244;SDS011;2136;48.502;9.194;2023-03-14T15:17:34;1.17;;;1.07;;
4244;SDS011;2136;48.502;9.194;2023-03-14T15:20:02;3.43;;;2.27;;
4244;SDS011;2136;48.502;9.194;2023-03-14T15:22:30;2.30;;;1.50;;
4244;SDS011;2136;48.502;9.194;2023-03-14T15:24:57;1.60;;;1.20;;
4244;SDS011;2136;48.502;9.194;2023-03-14T15:27:24;7.20;;;3.80;;
4244;SDS011;2136;48.502;9.194;2023-03-14T15:29:52;13.50;;;5.23;;
4244;SDS011;2136;48.502;9.194;2023-03-14T15:32:18;14.20;;;5.40;;
4244;SDS011;2136;48.502;9.194;2023-03-14T15:34:47;12.23;;;3.70;;
4244;SDS011;2136;48.502;9.194;2023-03-14T15:37:14;5.13;;;2.67;;
4244;SDS011;2136;48.502;9.194;2023-03-14T15:39:42;9.00;;;2.90;;